Time;durP1;ratioP1;P1;durP2;ratioP2;P2;SDS_P1;SDS_P2;PMS_P1;PMS_P2;Temp;Humidity;BMP_temperature;BMP_pressure;BME280_temperature;BME280_humidity;BME280_pressure;Samples;Min_cycle;Max_cycle;Signal;HPM_P1;HPM_P2
2022/12/29 00:01:30;;;;;;;24.05;23.08;;;4.60;83.00;;;;;;5045332;28;20071;-84
2022/12/29 00:03:55;;;;;;;25.92;24.92;;;4.50;83.30;;;;;;5027489;28;20033;-87
2022/12/29 00:06:21;;;;;;;28.88;27.63;;;4.60;83.00;;;;;;5046845;28;20479;-87
2022/12/29 00:08:47;;;;;;;65.68;60.28;;;4.60;83.00;;;;;;5046180;28;20033;-87
2022/12/29 00:11:16;;;;;;;22.80;21.88;;;4.50;83.20;;;;;;5047515;28;20035;-86
2022/12/29 00:16:30;;;;;;;37.22;35.70;;;4.60;83.00;;;;;;5046264;28;20052;-87
2022/12/29 00:18:56;;;;;;;41.47;39.58;;;4.60;82.70;;;;;;5049932;28;20025;-88
2022/12/29 00:35:37;;;;;;;58.78;56.25;;;4.60;82.90;;;;;;5050808;28;20514;-86
2022/12/29 00:46:18;;;;;;;60.00;57.20;;;4.60;81.70;;;;;;5044734;28;20044;-86
2022/12/29 00:51:30;;;;;;;26.73;25.55;;;4.60;82.30;;;;;;5036869;28;20067;-87
2022/12/29 00:53:56;;;;;;;46.83;42.47;;;4.50;82.80;;;;;;5052318;28;20037;-87
2022/12/29 00:56:21;;;;;;;86.72;81.55;;;4.60;82.90;;;;;;5044207;28;20027;-86
2022/12/29 00:58:47;;;;;;;149.38;104.70;;;4.60;82.60;;;;;;5052523;28;20519;-86
2022/12/29 01:01:15;;;;;;;75.78;72.65;;;4.50;82.60;;;;;;5051264;28;20037;-85
2022/12/29 01:03:41;;;;;;;89.22;83.90;;;4.50;83.80;;;;;;5054580;28;20043;-86
2022/12/29 01:06:09;;;;;;;76.35;72.93;;;4.50;82.80;;;;;;5054368;28;20032;-87
2022/12/29 01:08:35;;;;;;;29.10;27.85;;;4.50;82.40;;;;;;5050933;28;20032;-86
2022/12/29 01:11:08;;;;;;;27.23;26.08;;;4.60;82.70;;;;;;5033445;28;20072;-88
2022/12/29 01:13:35;;;;;;;85.95;79.90;;;4.60;82.90;;;;;;5051276;28;20029;-86
2022/12/29 01:16:01;;;;;;;28.65;27.55;;;4.50;82.70;;;;;;5055950;28;20116;-86
2022/12/29 01:18:27;;;;;;;53.63;51.63;;;4.50;82.30;;;;;;5049887;28;20032;-86
2022/12/29 01:21:04;;;;;;;92.63;86.72;;;4.50;82.70;;;;;;5049604;28;20025;-87
2022/12/29 01:23:31;;;;;;;24.75;23.75;;;4.50;82.50;;;;;;5050452;28;20028;-87
2022/12/29 01:25:57;;;;;;;27.42;26.40;;;4.40;83.60;;;;;;5050782;28;20033;-84
2022/12/29 01:28:23;;;;;;;24.73;23.73;;;4.40;84.10;;;;;;5055968;28;20047;-87
2022/12/29 01:30:49;;;;;;;81.35;77.65;;;4.40;83.40;;;;;;5050148;28;20386;-87
2022/12/29 01:33:15;;;;;;;30.05;28.85;;;4.50;83.70;;;;;;5048686;28;20127;-85
2022/12/29 01:35:40;;;;;;;28.33;27.23;;;4.60;82.40;;;;;;5050404;28;20089;-85
2022/12/29 01:38:07;;;;;;;34.42;33.10;;;4.70;81.60;;;;;;5049196;28;20074;-85
2022/12/29 01:40:33;;;;;;;38.97;37.28;;;4.70;81.30;;;;;;5053645;28;20116;-88
2022/12/29 01:42:58;;;;;;;32.05;30.40;;;4.80;81.80;;;;;;5048010;28;20112;-87
2022/12/29 01:45:27;;;;;;;40.25;38.67;;;4.80;81.50;;;;;;5052821;28;20032;-82
2022/12/29 01:48:00;;;;;;;39.50;37.95;;;4.90;80.60;;;;;;5050147;28;20051;-87
2022/12/29 01:50:53;;;;;;;37.17;35.70;;;4.90;80.80;;;;;;5048221;28;20026;-86
2022/12/29 01:53:25;;;;;;;32.05;30.67;;;5.00;78.50;;;;;;5048687;28;20071;-84
2022/12/29 01:55:55;;;;;;;23.38;22.38;;;5.10;79.20;;;;;;5031731;28;20041;-84
2022/12/29 01:58:24;;;;;;;31.00;29.67;;;5.10;78.10;;;;;;5049923;28;20025;-86
2022/12/29 02:00:49;;;;;;;21.45;20.60;;;5.10;77.90;;;;;;5047623;28;20041;-87
2022/12/29 02:03:17;;;;;;;25.98;24.95;;;5.10;78.40;;;;;;5039594;28;20033;-85
2022/12/29 02:06:03;;;;;;;51.97;47.45;;;5.00;78.50;;;;;;5049988;28;20112;-85
2022/12/29 02:08:30;;;;;;;25.80;24.75;;;5.10;78.20;;;;;;5048925;28;20040;-87
2022/12/29 02:10:57;;;;;;;23.33;22.38;;;5.20;78.80;;;;;;5048533;28;20041;-84
2022/12/29 02:13:26;;;;;;;32.17;30.88;;;5.20;78.40;;;;;;5052688;28;20025;-84
2022/12/29 02:16:29;;;;;;;95.80;85.82;;;5.20;78.90;;;;;;5050937;28;20033;-82
2022/12/29 02:19:09;;;;;;;27.00;25.75;;;5.30;77.60;;;;;;5049429;28;20060;-87
2022/12/29 02:21:45;;;;;;;41.20;39.27;;;5.30;78.00;;;;;;5049565;28;20083;-82
2022/12/29 02:24:30;;;;;;;18.50;17.60;;;5.20;77.50;;;;;;5045676;28;20043;-85
2022/12/29 02:27:33;;;;;;;23.38;22.40;;;5.30;77.30;;;;;;5031591;28;20104;-85
2022/12/29 02:30:10;;;;;;;12.38;11.77;;;5.20;77.50;;;;;;5050312;28;20057;-85
2022/12/29 02:32:53;;;;;;;20.17;19.27;;;5.20;77.80;;;;;;5051611;28;20040;-86
2022/12/29 02:35:44;;;;;;;34.30;32.88;;;5.30;78.70;;;;;;5051529;28;20021;-87
2022/12/29 02:38:48;;;;;;;22.45;21.35;;;5.20;77.40;;;;;;5039822;28;20020;-86
2022/12/29 02:41:32;;;;;;;18.38;17.58;;;5.30;77.30;;;;;;5049456;28;20032;-83
2022/12/29 02:44:22;;;;;;;28.98;27.38;;;5.40;77.30;;;;;;5047027;28;20064;-85
2022/12/29 02:46:58;;;;;;;16.58;15.68;;;5.50;76.50;;;;;;5036969;28;20028;-87
2022/12/29 02:49:53;;;;;;;23.85;22.90;;;5.50;76.80;;;;;;5051766;28;20056;-85
2022/12/29 02:52:27;;;;;;;161.13;117.47;;;5.40;77.40;;;;;;5047020;28;20090;-87
2022/12/29 02:54:54;;;;;;;18.90;18.00;;;5.40;77.40;;;;;;5049129;28;20040;-84
2022/12/29 02:57:20;;;;;;;27.15;26.10;;;5.50;77.50;;;;;;5046902;28;20017;-84
2022/12/29 02:59:51;;;;;;;23.13;22.17;;;5.50;77.70;;;;;;5048640;28;20044;-86
2022/12/29 03:02:38;;;;;;;104.65;60.53;;;5.50;77.90;;;;;;5047531;28;20431;-86
2022/12/29 03:05:10;;;;;;;13.93;13.38;;;5.60;75.80;;;;;;5048792;28;20064;-84
2022/12/29 03:07:54;;;;;;;21.17;20.25;;;5.70;75.80;;;;;;5054660;28;20552;-82
2022/12/29 03:10:38;;;;;;;18.92;17.63;;;5.70;75.90;;;;;;5046525;28;20078;-84
2022/12/29 03:16:12;;;;;;;117.13;94.25;;;5.90;75.40;;;;;;5048684;28;20549;-87
2022/12/29 03:18:47;;;;;;;33.53;31.88;;;6.00;74.80;;;;;;5043406;28;20802;-87
2022/12/29 03:22:26;;;;;;;22.20;21.30;;;6.00;75.00;;;;;;5048264;28;20105;-87
2022/12/29 03:24:11;;;;;;;44.00;41.25;;;6.00;75.50;;;;;;5047344;28;20025;-87
2022/12/29 03:26:37;;;;;;;31.27;29.98;;;6.00;76.60;;;;;;5052339;28;20029;-87
2022/12/29 03:29:05;;;;;;;23.42;22.52;;;6.10;76.10;;;;;;5046949;28;20033;-83
2022/12/29 03:31:31;;;;;;;32.80;31.42;;;6.00;77.10;;;;;;5030009;28;20066;-82
2022/12/29 03:33:58;;;;;;;42.33;40.38;;;6.00;76.30;;;;;;5046263;28;20060;-88
2022/12/29 03:36:32;;;;;;;47.15;44.60;;;6.10;75.60;;;;;;5047611;28;20033;-85
2022/12/29 03:39:13;;;;;;;33.05;31.02;;;6.00;76.70;;;;;;5048457;28;20037;-87
2022/12/29 03:41:43;;;;;;;73.85;69.63;;;6.00;76.20;;;;;;5043702;28;20029;-83
2022/12/29 03:44:08;;;;;;;16.50;15.80;;;6.10;75.30;;;;;;5046923;28;20029;-86
2022/12/29 03:46:35;;;;;;;19.63;18.83;;;6.20;75.30;;;;;;5050863;28;20033;-82
2022/12/29 03:49:01;;;;;;;24.30;23.10;;;6.20;75.40;;;;;;5048194;28;20044;-86
2022/12/29 03:51:27;;;;;;;37.85;36.00;;;6.20;75.80;;;;;;5048604;28;20036;-83
2022/12/29 03:53:53;;;;;;;23.35;22.38;;;6.20;75.80;;;;;;5049659;28;20041;-84
2022/12/29 03:56:19;;;;;;;70.50;61.80;;;6.20;76.70;;;;;;5048488;28;20148;-85
2022/12/29 03:58:45;;;;;;;21.20;20.30;;;6.10;76.50;;;;;;5051601;28;20183;-85
2022/12/29 04:01:10;;;;;;;22.80;21.90;;;6.10;76.80;;;;;;5047418;28;20045;-83
2022/12/29 04:03:36;;;;;;;26.65;25.60;;;6.10;76.90;;;;;;5053545;28;20522;-86
2022/12/29 04:06:03;;;;;;;110.95;95.93;;;6.00;77.70;;;;;;5049785;28;20040;-83
2022/12/29 04:08:28;;;;;;;27.38;26.27;;;6.00;77.90;;;;;;5046449;28;20051;-86
2022/12/29 04:10:54;;;;;;;23.98;22.88;;;6.00;77.90;;;;;;5049892;28;20363;-86
2022/12/29 04:13:20;;;;;;;35.50;34.13;;;5.90;77.70;;;;;;5047874;28;20075;-84
2022/12/29 04:15:45;;;;;;;34.97;33.65;;;5.90;78.30;;;;;;5050046;28;20745;-83
2022/12/29 04:18:12;;;;;;;35.47;34.08;;;5.80;78.80;;;;;;5046822;28;20036;-87
2022/12/29 04:23:22;;;;;;;43.40;41.05;;;5.80;79.00;;;;;;5046501;28;20071;-87
2022/12/29 04:25:47;;;;;;;37.20;35.50;;;5.80;79.20;;;;;;5048346;28;20519;-86
2022/12/29 04:28:15;;;;;;;53.33;51.17;;;5.70;79.20;;;;;;5049205;28;20033;-86
2022/12/29 04:30:41;;;;;;;43.90;42.20;;;5.70;79.10;;;;;;5046556;28;20060;-86
2022/12/29 04:33:06;;;;;;;46.70;44.65;;;5.80;80.10;;;;;;5052312;28;20078;-86
2022/12/29 04:35:32;;;;;;;31.50;29.88;;;5.80;79.60;;;;;;5030118;28;20486;-87
2022/12/29 04:37:58;;;;;;;43.45;41.85;;;5.80;80.20;;;;;;5048224;28;20802;-86
2022/12/29 04:40:23;;;;;;;35.15;33.78;;;5.80;80.90;;;;;;5047481;28;20661;-86
2022/12/29 04:42:49;;;;;;;30.33;28.92;;;5.70;82.10;;;;;;5047617;28;20036;-86
2022/12/29 04:45:15;;;;;;;65.25;62.55;;;5.60;82.00;;;;;;5047957;28;20625;-85
2022/12/29 04:47:41;;;;;;;25.35;24.00;;;5.60;82.50;;;;;;5048330;28;20041;-87
2022/12/29 04:50:07;;;;;;;29.13;27.92;;;5.60;82.60;;;;;;5044391;28;20734;-82
2022/12/29 04:52:33;;;;;;;40.67;38.72;;;5.60;83.40;;;;;;5046498;28;20033;-87
2022/12/29 04:54:59;;;;;;;64.72;62.03;;;5.50;84.20;;;;;;5046444;28;20052;-87
2022/12/29 04:57:24;;;;;;;34.42;33.13;;;5.50;84.60;;;;;;5048655;28;20464;-85
2022/12/29 04:59:50;;;;;;;149.32;142.13;;;5.50;85.00;;;;;;5047278;28;20514;-86
2022/12/29 05:02:17;;;;;;;92.13;88.60;;;5.50;85.00;;;;;;5044094;28;20388;-86
2022/12/29 05:04:43;;;;;;;64.90;62.53;;;5.60;84.60;;;;;;5041624;28;20555;-84
2022/12/29 05:07:08;;;;;;;77.20;72.45;;;5.60;85.20;;;;;;5029788;28;20215;-81
2022/12/29 05:09:34;;;;;;;88.13;84.95;;;5.60;85.20;;;;;;5049272;28;21325;-81
2022/12/29 05:11:59;;;;;;;87.10;83.97;;;5.50;85.90;;;;;;5048262;28;20491;-85
2022/12/29 05:14:25;;;;;;;120.93;116.65;;;5.40;86.30;;;;;;5032660;28;20040;-81
2022/12/29 05:16:51;;;;;;;143.68;138.20;;;5.40;86.10;;;;;;5049842;28;20033;-83
2022/12/29 05:19:17;;;;;;;62.30;60.05;;;5.40;87.40;;;;;;5046980;28;20033;-84
2022/12/29 05:21:43;;;;;;;243.63;234.10;;;5.50;87.50;;;;;;5052867;28;20101;-83
2022/12/29 05:24:09;;;;;;;187.48;179.90;;;5.30;88.60;;;;;;5050734;28;20033;-83
2022/12/29 05:26:35;;;;;;;249.27;239.32;;;5.30;88.50;;;;;;5051135;28;20033;-87
2022/12/29 05:29:00;;;;;;;344.55;327.05;;;5.30;89.10;;;;;;5033183;28;20032;-84
2022/12/29 05:31:27;;;;;;;183.63;176.77;;;5.30;89.10;;;;;;5049300;28;20037;-83
2022/12/29 05:33:56;;;;;;;312.80;300.70;;;5.40;88.60;;;;;;5048002;28;20078;-86
2022/12/29 05:36:22;;;;;;;210.23;202.63;;;5.30;89.10;;;;;;5049492;28;20028;-85
2022/12/29 05:38:49;;;;;;;383.25;367.48;;;5.30;89.50;;;;;;5049682;28;20487;-84
2022/12/29 05:41:14;;;;;;;345.23;327.70;;;5.30;89.70;;;;;;5032837;28;20483;-85
2022/12/29 05:43:40;;;;;;;277.42;266.80;;;5.30;89.60;;;;;;5041567;28;20039;-85
2022/12/29 05:46:05;;;;;;;326.08;313.60;;;5.40;89.20;;;;;;5049358;28;20048;-87
2022/12/29 05:48:31;;;;;;;276.38;263.98;;;5.30;89.50;;;;;;5049720;28;20024;-81
2022/12/29 05:50:57;;;;;;;375.45;353.35;;;5.30;90.10;;;;;;5032776;28;20040;-87
2022/12/29 05:53:22;;;;;;;344.73;331.15;;;5.30;90.00;;;;;;5053671;28;20116;-87
2022/12/29 05:55:49;;;;;;;303.00;290.05;;;5.20;90.30;;;;;;5048615;28;20427;-87
2022/12/29 05:58:16;;;;;;;387.98;369.50;;;5.20;90.40;;;;;;5046417;28;20029;-86
2022/12/29 06:00:43;;;;;;;375.27;360.40;;;5.20;90.80;;;;;;5054993;28;20128;-86
2022/12/29 06:03:10;;;;;;;470.58;444.05;;;5.40;91.00;;;;;;5050817;28;20574;-87
2022/12/29 06:05:35;;;;;;;409.77;392.08;;;5.40;90.80;;;;;;5048762;28;20111;-83
2022/12/29 06:08:01;;;;;;;508.30;479.45;;;5.40;90.90;;;;;;5031960;28;20036;-88
2022/12/29 06:10:27;;;;;;;558.00;524.95;;;5.40;91.00;;;;;;5055972;28;20024;-87
2022/12/29 06:12:52;;;;;;;409.52;392.48;;;5.40;91.30;;;;;;5038240;28;20511;-87
2022/12/29 06:15:18;;;;;;;672.55;633.70;;;5.30;91.50;;;;;;5032307;28;20302;-87
2022/12/29 06:17:44;;;;;;;377.08;357.98;;;5.20;91.60;;;;;;5048889;28;20398;-86
2022/12/29 06:20:10;;;;;;;618.25;578.22;;;5.00;91.90;;;;;;5040834;28;20017;-86
2022/12/29 06:22:36;;;;;;;410.25;392.98;;;5.20;92.20;;;;;;5049674;28;20044;-81
2022/12/29 06:25:02;;;;;;;342.20;328.38;;;5.30;91.90;;;;;;5049692;28;20037;-86
2022/12/29 06:27:28;;;;;;;520.33;495.02;;;5.30;92.20;;;;;;5050628;28;20032;-85
2022/12/29 06:29:54;;;;;;;483.60;461.00;;;5.50;92.00;;;;;;5050023;28;20055;-86
2022/12/29 06:32:20;;;;;;;623.53;580.38;;;5.40;92.00;;;;;;5046323;28;20442;-86
2022/12/29 06:34:46;;;;;;;562.95;510.25;;;5.40;92.10;;;;;;5048702;28;20041;-84
2022/12/29 06:37:11;;;;;;;544.78;516.63;;;5.60;91.60;;;;;;5049283;28;20021;-85
2022/12/29 06:39:37;;;;;;;522.13;492.42;;;5.50;91.80;;;;;;5048466;28;20036;-85
2022/12/29 06:42:05;;;;;;;444.58;424.95;;;5.50;92.10;;;;;;5049746;28;20032;-86
2022/12/29 06:44:30;;;;;;;493.48;470.38;;;5.40;92.10;;;;;;5047958;28;20502;-85
2022/12/29 06:46:57;;;;;;;417.05;399.23;;;5.40;92.00;;;;;;5046796;28;20045;-87
2022/12/29 06:49:23;;;;;;;538.63;512.20;;;5.40;92.10;;;;;;5046995;28;20013;-86
2022/12/29 06:51:48;;;;;;;486.27;464.33;;;5.60;91.70;;;;;;5053649;28;20039;-85
2022/12/29 06:54:14;;;;;;;709.58;657.67;;;5.60;91.50;;;;;;5047486;28;20486;-85
2022/12/29 06:56:40;;;;;;;518.97;491.08;;;5.60;91.40;;;;;;5049062;28;20068;-85
2022/12/29 06:59:05;;;;;;;415.35;397.60;;;5.50;91.70;;;;;;5048882;28;20069;-87
2022/12/29 07:01:31;;;;;;;460.42;440.60;;;5.60;91.40;;;;;;5048613;28;20029;-85
2022/12/29 07:03:57;;;;;;;418.10;400.63;;;5.50;91.20;;;;;;5047804;28;20032;-86
2022/12/29 07:06:23;;;;;;;417.60;400.52;;;5.30;91.60;;;;;;5047185;28;20025;-86
2022/12/29 07:08:48;;;;;;;425.13;406.83;;;5.30;91.50;;;;;;5037089;28;20037;-84
2022/12/29 07:11:14;;;;;;;345.55;330.67;;;5.50;91.30;;;;;;5051040;28;20036;-84
2022/12/29 07:13:40;;;;;;;444.08;425.08;;;5.40;91.30;;;;;;5051631;28;20036;-86
2022/12/29 07:16:07;;;;;;;486.58;464.83;;;5.40;91.40;;;;;;5045422;28;20033;-85
2022/12/29 07:18:35;;;;;;;447.48;426.65;;;5.40;91.50;;;;;;5049215;28;20552;-85
2022/12/29 07:21:01;;;;;;;426.02;408.48;;;5.30;91.80;;;;;;5039631;28;20036;-84
2022/12/29 07:23:27;;;;;;;379.80;364.95;;;5.40;91.70;;;;;;5046972;28;20090;-84
2022/12/29 07:26:19;;;;;;;439.67;420.40;;;5.30;91.90;;;;;;5046917;28;20652;-83
2022/12/29 07:28:46;;;;;;;329.25;316.95;;;5.30;91.90;;;;;;5038736;28;20076;-84
2022/12/29 07:31:18;;;;;;;402.90;386.80;;;5.30;91.80;;;;;;5047276;28;20120;-84
2022/12/29 07:33:45;;;;;;;377.50;362.58;;;5.30;91.90;;;;;;5044337;28;20029;-83
2022/12/29 07:36:12;;;;;;;384.42;368.55;;;5.20;92.00;;;;;;5034937;28;20029;-86
2022/12/29 07:38:38;;;;;;;348.40;334.45;;;5.30;91.70;;;;;;5030218;28;20029;-84
2022/12/29 07:41:04;;;;;;;337.55;323.73;;;5.30;91.90;;;;;;5046763;28;20459;-83
2022/12/29 07:43:30;;;;;;;391.45;376.17;;;5.30;91.50;;;;;;5048378;28;20017;-85
2022/12/29 07:45:57;;;;;;;381.45;365.27;;;5.40;90.90;;;;;;5048297;28;20052;-83
2022/12/29 07:48:23;;;;;;;335.55;322.13;;;5.70;90.40;;;;;;5046827;28;20479;-86
2022/12/29 07:50:48;;;;;;;394.98;378.67;;;5.80;90.20;;;;;;5047959;28;20120;-86
2022/12/29 07:53:15;;;;;;;467.58;442.02;;;5.80;90.20;;;;;;5028576;28;20032;-86
2022/12/29 07:55:42;;;;;;;367.85;352.90;;;5.90;89.80;;;;;;5033035;28;20057;-82
2022/12/29 07:58:08;;;;;;;420.52;402.48;;;5.90;90.00;;;;;;5046005;28;20033;-87
2022/12/29 08:00:37;;;;;;;343.77;330.45;;;6.00;90.00;;;;;;5033252;28;20052;-88
2022/12/29 08:03:03;;;;;;;364.10;350.00;;;5.90;90.30;;;;;;5045004;28;20032;-85
2022/12/29 08:05:35;;;;;;;359.38;343.00;;;5.90;90.20;;;;;;5050436;28;20116;-91
2022/12/29 08:08:00;;;;;;;299.40;287.80;;;6.00;90.00;;;;;;5048145;28;20079;-88
2022/12/29 08:10:26;;;;;;;339.70;319.48;;;6.10;89.90;;;;;;5044771;28;20044;-84
2022/12/29 08:12:52;;;;;;;331.15;318.85;;;6.30;88.50;;;;;;5047303;28;20499;-83
2022/12/29 08:15:17;;;;;;;369.52;351.08;;;6.30;88.90;;;;;;5045159;28;20041;-86
2022/12/29 08:17:43;;;;;;;299.77;287.70;;;6.60;87.50;;;;;;5045068;28;20028;-81
2022/12/29 08:20:09;;;;;;;318.08;305.45;;;6.70;86.90;;;;;;5046575;28;20048;-84
2022/12/29 08:22:36;;;;;;;389.52;373.92;;;6.70;86.80;;;;;;5048008;28;20721;-82
2022/12/29 08:25:03;;;;;;;376.60;358.70;;;6.60;87.50;;;;;;5046552;28;20045;-82
2022/12/29 08:27:28;;;;;;;339.35;326.13;;;6.50;87.90;;;;;;5041724;28;20039;-83
2022/12/29 08:29:55;;;;;;;292.73;279.52;;;6.60;88.00;;;;;;5046623;28;20280;-85
2022/12/29 08:32:20;;;;;;;282.13;266.55;;;6.70;87.20;;;;;;5046641;28;20354;-84
2022/12/29 08:34:46;;;;;;;297.10;285.40;;;6.80;86.80;;;;;;5047740;28;20499;-82
2022/12/29 08:37:12;;;;;;;364.35;338.58;;;6.80;87.10;;;;;;5048852;28;20474;-82
2022/12/29 08:39:37;;;;;;;401.85;383.25;;;6.90;86.90;;;;;;5048093;28;20079;-83
2022/12/29 08:42:03;;;;;;;346.50;330.42;;;6.90;86.70;;;;;;5050464;28;20071;-87
2022/12/29 08:44:28;;;;;;;389.33;373.92;;;6.90;86.80;;;;;;5046345;28;20542;-81
2022/12/29 08:46:54;;;;;;;490.33;454.20;;;6.90;87.70;;;;;;5043831;28;20029;-86
2022/12/29 08:49:20;;;;;;;430.27;412.23;;;6.90;88.30;;;;;;5032522;28;20538;-80
2022/12/29 08:51:45;;;;;;;290.13;278.75;;;6.90;88.30;;;;;;5051366;28;20026;-81
2022/12/29 08:54:11;;;;;;;254.80;244.82;;;7.10;87.80;;;;;;5049130;28;20028;-81
2022/12/29 08:56:37;;;;;;;317.10;304.83;;;7.10;87.90;;;;;;5050793;28;20079;-81
2022/12/29 08:59:04;;;;;;;264.50;253.07;;;7.10;87.80;;;;;;5033664;28;20063;-78
2022/12/29 09:01:30;;;;;;;335.20;318.58;;;7.30;86.70;;;;;;5006887;28;20052;-79
2022/12/29 09:03:56;;;;;;;408.75;376.80;;;7.40;86.40;;;;;;5027521;28;20057;-80
2022/12/29 09:06:22;;;;;;;383.45;344.25;;;7.50;85.50;;;;;;5027555;28;20116;-79
2022/12/29 09:08:48;;;;;;;303.05;279.48;;;7.60;85.10;;;;;;5030049;28;20109;-78
2022/12/29 09:11:18;;;;;;;261.20;250.65;;;7.60;85.00;;;;;;5031278;28;20052;-79
2022/12/29 09:13:44;;;;;;;243.05;229.90;;;7.60;84.70;;;;;;5031090;28;20487;-79
2022/12/29 09:16:10;;;;;;;383.98;308.98;;;7.70;85.10;;;;;;5029522;28;20033;-79
2022/12/29 09:18:36;;;;;;;210.98;200.80;;;7.80;83.10;;;;;;5025401;28;20036;-80
2022/12/29 09:21:04;;;;;;;111.30;107.13;;;8.00;83.40;;;;;;5025470;28;20028;-79
2022/12/29 09:23:31;;;;;;;194.07;183.02;;;8.00;83.00;;;;;;5013241;28;20057;-80
2022/12/29 09:25:56;;;;;;;134.45;126.15;;;8.00;82.00;;;;;;5027188;28;20399;-82
2022/12/29 09:28:23;;;;;;;133.98;126.43;;;8.10;81.80;;;;;;5029800;28;20036;-81
2022/12/29 09:30:50;;;;;;;63.58;61.20;;;8.20;81.90;;;;;;5028206;28;20045;-82
2022/12/29 09:33:16;;;;;;;39.80;38.10;;;8.40;82.40;;;;;;5029967;28;20037;-80
2022/12/29 09:35:51;;;;;;;98.65;92.85;;;8.50;81.20;;;;;;5016599;28;20437;-79
2022/12/29 09:38:17;;;;;;;211.63;195.73;;;8.60;78.40;;;;;;5030347;28;20024;-81
2022/12/29 09:40:45;;;;;;;39.72;37.88;;;8.70;79.00;;;;;;5029427;28;20021;-78
2022/12/29 09:43:32;;;;;;;41.92;40.22;;;8.70;78.10;;;;;;5030886;28;20028;-80
2022/12/29 09:46:13;;;;;;;105.22;95.85;;;8.80;77.10;;;;;;5028082;28;20033;-78
2022/12/29 09:48:41;;;;;;;;;;;8.70;77.00;;;;;;5028975;28;20476;-79
2022/12/29 09:51:14;;;;;;;135.30;120.78;;;8.70;77.00;;;;;;5027954;28;19962;-79
2022/12/29 09:54:05;;;;;;;28.88;27.65;;;8.60;76.40;;;;;;5029239;28;20679;-79
2022/12/29 09:56:30;;;;;;;;;;;8.70;76.60;;;;;;5009441;28;20096;-79
2022/12/29 09:59:07;;;;;;;16.17;15.43;;;8.70;77.60;;;;;;5012505;28;19913;-78
2022/12/29 10:01:38;;;;;;;174.15;122.57;;;8.80;76.60;;;;;;5049026;28;20128;-78
2022/12/29 10:04:07;;;;;;;45.33;42.53;;;9.00;76.30;;;;;;5050173;28;20048;-80
2022/12/29 10:06:41;;;;;;;35.47;33.55;;;9.10;76.00;;;;;;5048317;28;20025;-79
2022/12/29 10:09:24;;;;;;;76.97;61.20;;;9.20;75.40;;;;;;5050583;28;20028;-79
2022/12/29 10:12:22;;;;;;;24.20;23.05;;;9.30;74.30;;;;;;5036278;28;20043;-79
2022/12/29 10:15:11;;;;;;;18.50;17.48;;;9.50;74.60;;;;;;5043358;28;20024;-79
2022/12/29 10:17:46;;;;;;;30.27;28.97;;;9.60;72.80;;;;;;5048157;28;20036;-80
2022/12/29 10:20:22;;;;;;;152.77;101.07;;;9.60;73.60;;;;;;5047644;28;20024;-80
2022/12/29 10:22:59;;;;;;;91.75;71.80;;;9.50;72.40;;;;;;5030634;28;20396;-81
2022/12/29 10:25:28;;;;;;;22.00;21.08;;;9.50;73.10;;;;;;5048859;28;20676;-79
2022/12/29 10:27:57;;;;;;;35.72;34.20;;;9.40;73.10;;;;;;5047648;28;20056;-81
2022/12/29 10:30:23;;;;;;;91.45;73.32;;;9.40;73.70;;;;;;5036407;28;20025;-79
2022/12/29 10:32:57;;;;;;;21.08;19.75;;;9.40;74.00;;;;;;5052593;28;20031;-79
2022/12/29 10:35:35;;;;;;;40.90;39.25;;;9.40;73.80;;;;;;5045862;28;20041;-78
2022/12/29 10:38:25;;;;;;;418.17;189.35;;;9.50;74.00;;;;;;5041236;28;20732;-81
2022/12/29 10:41:15;;;;;;;195.20;165.18;;;9.60;74.00;;;;;;5045294;28;20032;-80
2022/12/29 10:43:47;;;;;;;87.35;80.53;;;9.70;73.80;;;;;;5047496;28;20028;-78
2022/12/29 10:46:26;;;;;;;31.27;30.08;;;9.70;74.10;;;;;;5051966;28;20037;-78
2022/12/29 10:48:52;;;;;;;336.65;200.90;;;9.70;73.10;;;;;;5041900;28;20044;-78
2022/12/29 10:51:33;;;;;;;114.05;103.30;;;9.60;72.80;;;;;;5049166;28;20105;-80
2022/12/29 10:54:27;;;;;;;41.40;39.60;;;9.60;73.90;;;;;;5051788;28;20043;-78
2022/12/29 10:56:56;;;;;;;200.15;169.15;;;9.70;73.90;;;;;;5047341;28;20047;-79
2022/12/29 10:59:24;;;;;;;147.48;135.02;;;9.80;73.90;;;;;;5048868;28;20107;-79
2022/12/29 11:02:18;;;;;;;35.92;34.42;;;9.80;74.30;;;;;;5050542;28;20131;-79
2022/12/29 11:04:46;;;;;;;35.95;34.22;;;9.90;75.50;;;;;;5047435;28;20483;-79
2022/12/29 11:07:17;;;;;;;33.05;31.75;;;10.00;74.80;;;;;;5047880;28;20040;-78
2022/12/29 11:09:43;;;;;;;53.88;50.95;;;9.90;75.00;;;;;;5048057;28;20036;-80
2022/12/29 11:12:25;;;;;;;44.70;41.72;;;9.90;75.10;;;;;;5047440;28;20063;-79
2022/12/29 11:15:09;;;;;;;76.97;71.95;;;9.90;76.00;;;;;;5044586;28;20021;-80
2022/12/29 11:17:50;;;;;;;62.20;58.35;;;9.90;75.20;;;;;;5027784;28;20558;-79
2022/12/29 11:20:42;;;;;;;33.95;32.60;;;10.00;74.70;;;;;;5050853;28;20036;-79
2022/12/29 11:23:26;;;;;;;27.17;25.65;;;10.00;74.90;;;;;;5048100;28;20041;-79
2022/12/29 11:26:21;;;;;;;36.95;35.53;;;10.00;75.30;;;;;;5047497;28;20061;-78
2022/12/29 11:29:03;;;;;;;40.08;38.58;;;10.10;75.40;;;;;;5051164;28;20033;-78
2022/12/29 11:31:30;;;;;;;61.80;57.28;;;10.00;75.60;;;;;;5048870;28;20102;-78
2022/12/29 11:33:56;;;;;;;154.35;133.63;;;10.00;75.00;;;;;;5048728;28;20064;-79
2022/12/29 11:36:24;;;;;;;58.90;56.60;;;10.00;74.70;;;;;;5047158;28;20585;-80
2022/12/29 11:38:52;;;;;;;48.30;46.20;;;10.10;75.50;;;;;;5034226;28;20032;-79
2022/12/29 11:41:31;;;;;;;193.18;180.63;;;10.00;75.00;;;;;;5047516;28;20029;-78
2022/12/29 11:44:04;;;;;;;266.25;241.05;;;10.00;75.30;;;;;;5032720;28;20560;-78
2022/12/29 11:46:34;;;;;;;215.63;182.68;;;10.00;75.30;;;;;;5040160;28;20495;-78
2022/12/29 11:49:01;;;;;;;54.25;51.88;;;10.10;74.70;;;;;;5053261;28;20064;-79
2022/12/29 11:51:44;;;;;;;114.80;102.60;;;10.10;74.30;;;;;;5048370;28;20029;-79
2022/12/29 11:54:34;;;;;;;61.05;57.50;;;10.10;75.60;;;;;;5049224;28;20037;-78
2022/12/29 11:57:11;;;;;;;40.37;38.53;;;10.00;74.40;;;;;;5024914;28;20033;-79
2022/12/29 11:59:40;;;;;;;178.48;151.13;;;10.10;74.20;;;;;;5042516;28;20316;-79
2022/12/29 12:02:32;;;;;;;63.43;60.30;;;10.20;73.70;;;;;;5026433;28;20047;-78
2022/12/29 12:05:12;;;;;;;41.42;39.53;;;10.30;74.20;;;;;;5023837;28;20041;-80
2022/12/29 12:07:45;;;;;;;52.35;50.05;;;10.30;74.00;;;;;;5026653;28;20195;-78
2022/12/29 12:10:26;;;;;;;299.08;154.13;;;10.10;74.00;;;;;;5027144;28;20037;-79
2022/12/29 12:13:15;;;;;;;52.40;50.17;;;10.10;73.70;;;;;;5027051;28;20021;-78
2022/12/29 12:15:46;;;;;;;72.97;69.00;;;10.20;74.60;;;;;;5027024;28;20482;-78
2022/12/29 12:18:24;;;;;;;97.32;90.93;;;10.20;74.20;;;;;;5028149;28;20018;-77
2022/12/29 12:20:54;;;;;;;59.35;57.10;;;10.20;74.70;;;;;;5024622;28;20060;-78
2022/12/29 12:23:25;;;;;;;;;;;10.20;75.30;;;;;;5027043;28;20029;-78
2022/12/29 12:26:10;;;;;;;;;;;10.30;75.40;;;;;;5024720;28;19924;-81
2022/12/29 12:28:56;;;;;;;80.18;49.53;;;10.30;74.90;;;;;;5028500;28;19913;-78
2022/12/29 12:31:30;;;;;;;228.00;182.70;;;10.20;75.00;;;;;;5031064;28;20037;-80
2022/12/29 12:34:04;;;;;;;40.85;39.20;;;10.20;75.30;;;;;;5032294;28;20559;-78
2022/12/29 12:36:48;;;;;;;56.72;54.25;;;10.20;75.90;;;;;;5030670;28;20045;-78
2022/12/29 12:39:29;;;;;;;58.22;55.78;;;10.20;76.10;;;;;;5031639;28;20479;-77
2022/12/29 12:42:04;;;;;;;102.43;96.95;;;10.20;75.10;;;;;;5030275;28;20698;-79
2022/12/29 12:44:52;;;;;;;82.20;78.78;;;10.30;75.40;;;;;;5031809;28;20033;-77
2022/12/29 12:47:36;;;;;;;63.17;60.47;;;10.30;75.00;;;;;;5030621;28;20021;-78
2022/12/29 12:50:26;;;;;;;45.28;43.53;;;10.30;75.00;;;;;;5029929;28;20071;-78
2022/12/29 12:53:18;;;;;;;181.05;159.13;;;10.20;75.80;;;;;;5026034;28;20065;-79
2022/12/29 12:55:53;;;;;;;76.65;73.32;;;10.20;75.90;;;;;;5028012;28;20495;-78
2022/12/29 12:58:43;;;;;;;66.30;63.50;;;10.20;75.90;;;;;;5026598;28;20022;-79
2022/12/29 13:01:23;;;;;;;75.28;69.38;;;10.20;76.50;;;;;;5042930;28;20510;-79
2022/12/29 13:04:22;;;;;;;43.15;41.50;;;10.30;75.90;;;;;;5049321;28;20468;-78
2022/12/29 13:07:15;;;;;;;38.30;36.67;;;10.40;75.80;;;;;;5054030;28;20037;-79
2022/12/29 13:09:48;;;;;;;47.28;45.40;;;10.30;75.90;;;;;;5052100;28;20117;-79
2022/12/29 13:12:52;;;;;;;172.68;157.70;;;10.30;76.30;;;;;;5053101;28;20032;-78
2022/12/29 13:15:50;;;;;;;77.93;74.45;;;10.30;75.40;;;;;;5050728;28;20032;-79
2022/12/29 13:18:48;;;;;;;82.97;78.50;;;10.20;75.70;;;;;;5033612;28;20029;-78
2022/12/29 13:21:49;;;;;;;43.92;42.28;;;10.20;75.90;;;;;;5017109;28;20076;-78
2022/12/29 13:24:32;;;;;;;39.97;38.38;;;10.20;76.30;;;;;;5050416;28;20029;-78